Terminal Aerodrome Forecast
Issued by NWS Cleveland, OH

Home | Current Version | Previous Version | Graphics & Text | Print | Product List | Glossary On
Versions: 1 2 3 4 5 6 7 8 9 10 11 12 13 14 15 16 17 18 19 20 21 22 23 24
818
FTUS41 KCLE 102341
TAFERI
TAF
KERI 102341Z 1100/1124 28015G24KT 6SM -SHSN SCT025 BKN040
      TEMPO 1100/1103 4SM -SHSN OVC015
     FM110900 29012G20KT 3SM -SHSN OVC025
      TEMPO 1110/1114 3/4SM -SHSN OVC015
     FM111800 28012G20KT 6SM -SHSN OVC025=

USA.gov is the U.S. government's official web portal to all federal, state and local government web resources and services.